Time;durP1;ratioP1;P1;durP2;ratioP2;P2;SDS_P1;SDS_P2;PMS_P1;PMS_P2;Temp;Humidity;BMP_temperature;BMP_pressure;BME280_temperature;BME280_humidity;BME280_pressure;Samples;Min_cycle;Max_cycle;Signal;HPM_P1;HPM_P2
2023/10/04 00:00:37;;;;;;;3.67;1.63;;;10.70;56.20;;;;;;5056530;28;20492;-68
2023/10/04 00:03:04;;;;;;;2.70;1.60;;;10.70;56.00;;;;;;5037745;28;20455;-70
2023/10/04 00:05:30;;;;;;;3.10;1.80;;;10.70;56.90;;;;;;5056123;28;20224;-70
2023/10/04 00:07:56;;;;;;;2.97;1.97;;;10.70;56.70;;;;;;5057998;28;20833;-70
2023/10/04 00:10:23;;;;;;;4.80;2.13;;;10.70;57.30;;;;;;5055897;28;20471;-69
2023/10/04 00:12:50;;;;;;;3.40;2.00;;;10.70;56.80;;;;;;5055713;28;21086;-69
2023/10/04 00:15:20;;;;;;;4.33;1.87;;;10.60;56.80;;;;;;5054874;28;20421;-70
2023/10/04 00:17:46;;;;;;;4.43;2.40;;;10.60;57.90;;;;;;5057066;28;20413;-69
2023/10/04 00:20:16;;;;;;;3.63;2.10;;;10.60;58.40;;;;;;5054067;28;20424;-70
2023/10/04 00:22:43;;;;;;;4.17;2.00;;;10.60;58.70;;;;;;5054198;28;20417;-70
2023/10/04 00:25:12;;;;;;;3.83;2.27;;;10.60;58.30;;;;;;5056807;28;20471;-69
2023/10/04 00:27:42;;;;;;;2.90;1.73;;;10.50;59.40;;;;;;5053919;28;20401;-71
2023/10/04 00:30:14;;;;;;;3.87;1.90;;;10.50;59.60;;;;;;5054954;28;20498;-71
2023/10/04 00:32:40;;;;;;;4.10;1.80;;;10.50;60.20;;;;;;5053794;28;20405;-71
2023/10/04 00:35:15;;;;;;;3.93;1.83;;;10.50;60.80;;;;;;5054036;28;20441;-69
2023/10/04 00:37:43;;;;;;;4.10;1.70;;;10.50;60.80;;;;;;5036116;28;20423;-68
2023/10/04 00:40:17;;;;;;;3.37;2.23;;;10.50;60.50;;;;;;5036001;28;20431;-70
2023/10/04 00:42:54;;;;;;;3.50;1.70;;;10.40;60.20;;;;;;5056282;28;20503;-70
2023/10/04 00:45:22;;;;;;;7.50;1.90;;;10.40;60.10;;;;;;5056515;28;20472;-69
2023/10/04 00:47:51;;;;;;;6.27;2.20;;;10.40;60.40;;;;;;5057951;28;20482;-69
2023/10/04 00:50:29;;;;;;;4.07;2.13;;;10.30;60.30;;;;;;5055370;28;20449;-70
2023/10/04 00:53:08;;;;;;;3.23;1.67;;;10.30;59.90;;;;;;5054356;28;20419;-69
2023/10/04 00:55:39;;;;;;;5.93;2.57;;;10.20;60.20;;;;;;5054309;28;20447;-69
2023/10/04 00:58:06;;;;;;;4.10;1.97;;;;;;;;;;5057267;28;20912;-70
2023/10/04 01:00:32;;;;;;;4.90;2.20;;;;;;;;;;5053284;28;20900;-70
2023/10/04 01:02:59;;;;;;;3.63;2.73;;;;;;;;;;5053287;28;20552;-71
2023/10/04 01:05:27;;;;;;;2.67;1.77;;;;;;;;;;5036069;28;20420;-70
2023/10/04 01:07:56;;;;;;;4.50;2.20;;;;;;;;;;5056095;28;20825;-70
2023/10/04 01:10:27;;;;;;;5.40;2.33;;;;;;;;;;5053489;28;20543;-69
2023/10/04 01:12:53;;;;;;;3.70;2.40;;;;;;;;;;5052961;28;20432;-70
2023/10/04 01:17:51;;;;;;;6.30;1.93;;;;;;;;;;5053924;28;20466;-70
2023/10/04 01:20:22;;;;;;;5.83;2.60;;;;;;;;;;5055229;28;20792;-70
2023/10/04 01:22:47;;;;;;;3.77;2.60;;;;;;;;;;5053456;28;20419;-69
2023/10/04 01:25:15;;;;;;;3.00;1.83;;;;;;;;;;5054202;28;20856;-69
2023/10/04 01:27:44;;;;;;;3.80;2.03;;;;;;;;;;5053696;28;20409;-69
2023/10/04 01:30:10;;;;;;;4.63;2.23;;;;;;;;;;5053997;28;20532;-70
2023/10/04 01:32:37;;;;;;;3.37;1.77;;;;;;;;;;5056952;28;20422;-69
2023/10/04 01:35:05;;;;;;;4.20;1.97;;;;;;;;;;5056036;28;20924;-69
2023/10/04 01:37:32;;;;;;;3.60;1.90;;;;;;;;;;5054170;28;20481;-70
2023/10/04 01:39:58;;;;;;;3.87;2.50;;;;;;;;;;5053158;28;20416;-70
2023/10/04 01:42:25;;;;;;;6.80;2.57;;;;;;;;;;5056272;28;20915;-69
2023/10/04 01:44:52;;;;;;;4.63;1.97;;;;;;;;;;5035686;28;20440;-70
2023/10/04 01:47:19;;;;;;;2.53;2.00;;;;;;;;;;5036448;28;20492;-70
2023/10/04 01:49:46;;;;;;;4.07;2.37;;;;;;;;;;5056001;28;20438;-71
2023/10/04 01:52:12;;;;;;;4.90;3.00;;;;;;;;;;5057623;28;20423;-71
2023/10/04 01:54:38;;;;;;;2.97;2.30;;;;;;;;;;5056498;28;20433;-71
2023/10/04 01:57:05;;;;;;;5.83;2.53;;;;;;;;;;5054400;28;20470;-70
2023/10/04 01:59:31;;;;;;;5.63;1.87;;;;;;;;;;5037033;28;20444;-70
2023/10/04 02:01:57;;;;;;;8.60;1.50;;;;;;;;;;5056964;28;20432;-70
2023/10/04 02:04:23;;;;;;;4.00;2.23;;;;;;;;;;5055283;28;20437;-70
2023/10/04 02:06:49;;;;;;;3.63;1.70;;;;;;;;;;5056733;28;20539;-70
2023/10/04 02:09:16;;;;;;;3.80;1.70;;;;;;;;;;5035753;28;20469;-70
2023/10/04 02:11:43;;;;;;;3.07;1.70;;;;;;;;;;5035573;28;20847;-70
2023/10/04 02:14:09;;;;;;;3.53;1.50;;;;;;;;;;5056626;23;20504;-71
2023/10/04 02:16:35;;;;;;;5.10;2.23;;;;;;;;;;5033153;28;20417;-71
2023/10/04 02:19:01;;;;;;;6.03;2.73;;;;;;;;;;5035820;28;20420;-71
2023/10/04 02:21:27;;;;;;;6.13;2.37;;;;;;;;;;5034912;28;20504;-71
2023/10/04 02:23:53;;;;;;;3.30;1.73;;;;;;;;;;5035284;28;20461;-71
2023/10/04 02:26:22;;;;;;;9.33;2.40;;;;;;;;;;5035127;28;20412;-71
2023/10/04 02:28:51;;;;;;;4.00;2.23;;;;;;;;;;5034269;28;20468;-71
2023/10/04 02:31:17;;;;;;;3.97;2.30;;;;;;;;;;5035431;28;20521;-71
2023/10/04 02:33:43;;;;;;;6.40;2.30;;;;;;;;;;5034836;28;20433;-71
2023/10/04 02:36:09;;;;;;;2.80;1.60;;;;;;;;;;5035160;28;20412;-72
2023/10/04 02:38:36;;;;;;;3.07;1.70;;;;;;;;;;5035107;28;20567;-71
2023/10/04 02:41:05;;;;;;;3.60;2.10;;;;;;;;;;5035437;28;20518;-72
2023/10/04 02:43:32;;;;;;;4.47;2.03;;;;;;;;;;5034444;28;20518;-72
2023/10/04 02:45:58;;;;;;;3.73;2.40;;;;;;;;;;5035365;28;20893;-72
2023/10/04 02:48:24;;;;;;;3.80;1.87;;;;;;;;;;5034248;28;20458;-72
2023/10/04 02:50:50;;;;;;;3.00;1.60;;;;;;;;;;5034239;28;20474;-72
2023/10/04 02:53:19;;;;;;;4.67;2.60;;;;;;;;;;5036761;28;21016;-72
2023/10/04 02:55:46;;;;;;;3.63;1.77;;;;;;;;;;5033955;28;20411;-71
2023/10/04 02:58:13;;;;;;;6.53;2.00;;;;;;;;;;5036131;28;20414;-71
2023/10/04 03:00:44;;;;;;;4.10;1.63;;;;;;;;;;5034653;28;20494;-70
2023/10/04 03:03:12;;;;;;;3.80;2.10;;;;;;;;;;5036044;28;20446;-71
2023/10/04 03:05:40;;;;;;;3.43;2.10;;;;;;;;;;5033932;28;20767;-71
2023/10/04 03:08:06;;;;;;;2.50;1.50;;;;;;;;;;5035996;28;20409;-70
2023/10/04 03:10:33;;;;;;;2.60;1.60;;;;;;;;;;5034103;28;20462;-70
2023/10/04 03:13:01;;;;;;;4.00;1.90;;;;;;;;;;5035268;28;20937;-70
2023/10/04 03:15:28;;;;;;;4.37;2.50;;;;;;;;;;5034265;28;20425;-71
2023/10/04 03:17:55;;;;;;;3.27;1.90;;;;;;;;;;5034440;28;20409;-70
2023/10/04 03:20:28;;;;;;;5.50;1.63;;;;;;;;;;5033985;28;20432;-71
2023/10/04 03:22:55;;;;;;;4.30;2.30;;;;;;;;;;5033744;28;20417;-72
2023/10/04 03:25:23;;;;;;;6.30;2.70;;;;;;;;;;5033813;28;20483;-71
2023/10/04 03:27:50;;;;;;;6.17;2.00;;;;;;;;;;5034946;28;20413;-71
2023/10/04 03:30:16;;;;;;;3.80;1.83;;;;;;;;;;5034211;28;20444;-72
2023/10/04 03:32:44;;;;;;;3.83;2.07;;;;;;;;;;5035870;28;20417;-69
2023/10/04 03:35:14;;;;;;;3.50;2.00;;;;;;;;;;5034098;28;20463;-70
2023/10/04 03:37:47;;;;;;;3.63;1.83;;;;;;;;;;5034047;28;20428;-70
2023/10/04 03:40:15;;;;;;;6.37;2.13;;;;;;;;;;5034648;28;20496;-71
2023/10/04 03:42:45;;;;;;;6.67;2.60;;;;;;;;;;5033672;28;20780;-71
2023/10/04 03:45:11;;;;;;;5.23;2.30;;;;;;;;;;5033690;28;20947;-71
2023/10/04 03:47:38;;;;;;;5.13;2.50;;;;;;;;;;5033485;28;20416;-71
2023/10/04 03:50:06;;;;;;;3.97;2.17;;;;;;;;;;5035299;28;21036;-71
2023/10/04 03:52:33;;;;;;;5.07;2.03;;;;;;;;;;5034273;28;20454;-71
2023/10/04 03:54:59;;;;;;;3.60;1.97;;;;;;;;;;5032344;28;20443;-71
2023/10/04 03:57:25;;;;;;;4.43;2.00;;;;;;;;;;5035655;28;20488;-71
2023/10/04 03:59:52;;;;;;;3.90;1.50;;;;;;;;;;5033779;28;20417;-72
2023/10/04 04:02:19;;;;;;;3.30;2.00;;;;;;;;;;5033739;28;20490;-72
2023/10/04 04:04:46;;;;;;;2.20;1.43;;;;;;;;;;5034315;28;20468;-70
2023/10/04 04:07:12;;;;;;;3.70;2.30;;;;;;;;;;5033574;28;20413;-72
2023/10/04 04:09:38;;;;;;;4.40;2.53;;;;;;;;;;5034525;28;20759;-70
2023/10/04 04:12:05;;;;;;;4.40;2.63;;;;;;;;;;5034618;28;20455;-71
2023/10/04 04:14:31;;;;;;;6.30;3.20;;;;;;;;;;5034490;28;20444;-71
2023/10/04 04:16:58;;;;;;;5.57;3.00;;;;;;;;;;5035343;28;20439;-70
2023/10/04 04:19:26;;;;;;;4.83;3.20;;;;;;;;;;5032021;28;20417;-70
2023/10/04 04:21:56;;;;;;;3.97;2.40;;;;;;;;;;5035132;28;20430;-71
2023/10/04 04:24:22;;;;;;;3.70;1.83;;;;;;;;;;5031831;28;20532;-70
2023/10/04 04:26:48;;;;;;;5.10;2.80;;;;;;;;;;5032978;28;20417;-70
2023/10/04 04:29:14;;;;;;;2.53;1.57;;;;;;;;;;5033537;28;20486;-70
2023/10/04 04:31:40;;;;;;;5.80;2.60;;;;;;;;;;5034167;28;20522;-71
2023/10/04 04:34:11;;;;;;;5.33;2.50;;;;;;;;;;5034341;28;20432;-70
2023/10/04 04:36:39;;;;;;;3.17;2.13;;;;;;;;;;5033566;28;20404;-70
2023/10/04 04:39:05;;;;;;;4.70;2.60;;;;;;;;;;5033700;28;20408;-70
2023/10/04 04:41:33;;;;;;;3.30;2.23;;;;;;;;;;5034323;28;20419;-70
2023/10/04 04:44:07;;;;;;;6.67;2.50;;;;;;;;;;5031838;28;20956;-70
2023/10/04 04:46:34;;;;;;;3.27;2.00;;;;;;;;;;5033956;28;20423;-70
2023/10/04 04:49:00;;;;;;;2.57;1.67;;;;;;;;;;5032972;28;20435;-70
2023/10/04 04:51:27;;;;;;;3.17;2.00;;;;;;;;;;5033761;28;20462;-71
2023/10/04 04:53:53;;;;;;;3.80;1.77;;;;;;;;;;5031047;28;20534;-71
2023/10/04 04:56:21;;;;;;;4.87;2.20;;;;;;;;;;5034478;28;20407;-71
2023/10/04 04:58:48;;;;;;;2.93;2.30;;;;;;;;;;5032657;28;20408;-71
2023/10/04 05:01:14;;;;;;;4.47;2.73;;;;;;;;;;5034123;28;20427;-70
2023/10/04 05:03:41;;;;;;;3.80;2.07;;;;;;;;;;5032285;28;20433;-69
2023/10/04 05:06:09;;;;;;;3.17;2.10;;;;;;;;;;5032449;28;20417;-70
2023/10/04 05:08:36;;;;;;;4.37;2.53;;;;;;;;;;5031800;28;20458;-69
2023/10/04 05:11:05;;;;;;;5.27;2.20;;;;;;;;;;5033254;28;20470;-69
2023/10/04 05:13:31;;;;;;;4.00;2.43;;;;;;;;;;5031868;28;20975;-70
2023/10/04 05:15:59;;;;;;;5.67;3.37;;;;;;;;;;5032841;28;20419;-68
2023/10/04 05:18:26;;;;;;;3.73;2.63;;;;;;;;;;5033685;28;20411;-69
2023/10/04 05:20:54;;;;;;;3.70;2.40;;;;;;;;;;5031069;28;20427;-69
2023/10/04 05:23:21;;;;;;;5.33;2.30;;;;;;;;;;5031955;28;20852;-69
2023/10/04 05:25:47;;;;;;;2.80;2.20;;;;;;;;;;5034526;28;20410;-69
2023/10/04 05:28:13;;;;;;;4.77;2.50;;;;;;;;;;5033134;28;20414;-69
2023/10/04 05:30:44;;;;;;;4.00;2.30;;;;;;;;;;5031849;28;20858;-69
2023/10/04 05:33:11;;;;;;;3.10;2.13;;;;;;;;;;5033190;28;20410;-69
2023/10/04 05:35:40;;;;;;;8.03;2.80;;;;;;;;;;5032443;28;20938;-69
2023/10/04 05:38:11;;;;;;;4.87;2.67;;;;;;;;;;5032243;28;20415;-68
2023/10/04 05:40:43;;;;;;;5.73;2.30;;;;;;;;;;5032059;28;20809;-68
2023/10/04 05:43:09;;;;;;;4.60;3.03;;;;;;;;;;5030895;28;20423;-68
2023/10/04 05:45:36;;;;;;;4.47;2.57;;;;;;;;;;5034667;28;20425;-69
2023/10/04 05:48:04;;;;;;;7.10;3.17;;;;;;;;;;5033692;28;20486;-68
2023/10/04 05:50:32;;;;;;;3.73;1.83;;;;;;;;;;5032629;28;20470;-68
2023/10/04 05:53:00;;;;;;;4.50;2.10;;;;;;;;;;5036990;28;20783;-67
2023/10/04 05:55:26;;;;;;;9.40;2.80;;;;;;;;;;5037067;28;20426;-68
2023/10/04 05:57:52;;;;;;;11.33;3.03;;;;;;;;;;5036742;28;20916;-68
2023/10/04 06:02:58;;;;;;;3.80;2.63;;;;;;;;;;5035691;28;20818;-68
2023/10/04 06:05:25;;;;;;;4.83;2.53;;;;;;;;;;5035673;28;20471;-68
2023/10/04 06:07:52;;;;;;;3.30;1.80;;;;;;;;;;5034397;28;20502;-69
2023/10/04 06:10:18;;;;;;;6.43;3.97;;;;;;;;;;5035323;28;20557;-69
2023/10/04 06:12:46;;;;;;;6.83;3.40;;;;;;;;;;5035509;28;20418;-68
2023/10/04 06:15:14;;;;;;;5.17;2.47;;;;;;;;;;5035975;28;20450;-69
2023/10/04 06:17:44;;;;;;;4.23;2.53;;;;;;;;;;5035586;28;20409;-69
2023/10/04 06:22:57;;;;;;;4.10;1.90;;;;;;;;;;5036602;28;20427;-70
2023/10/04 06:25:24;;;;;;;4.37;2.33;;;;;;;;;;5035193;28;20966;-69
2023/10/04 06:27:51;;;;;;;10.60;9.57;;;;;;;;;;5036614;28;20970;-69
2023/10/04 06:30:21;;;;;;;4.70;3.17;;;;;;;;;;5034869;28;20468;-70
2023/10/04 06:32:47;;;;;;;7.30;3.07;;;;;;;;;;5036629;28;20847;-68
2023/10/04 06:35:13;;;;;;;8.40;3.40;;;;;;;;;;5034808;28;20754;-68
2023/10/04 06:37:39;;;;;;;4.47;2.43;;;;;;;;;;5037615;28;20422;-70
2023/10/04 06:40:14;;;;;;;6.50;3.07;;;;;;;;;;5034842;28;20500;-70
2023/10/04 06:42:40;;;;;;;6.40;3.13;;;;;;;;;;5036592;28;20903;-70
2023/10/04 06:45:07;;;;;;;4.80;1.90;;;;;;;;;;5034586;28;20468;-71
2023/10/04 06:47:34;;;;;;;3.93;2.13;;;;;;;;;;5036246;28;20420;-69
2023/10/04 06:50:02;;;;;;;4.80;1.60;;;;;;;;;;5030353;28;20555;-69
2023/10/04 06:52:28;;;;;;;4.73;2.23;;;;;;;;;;5032259;28;20500;-69
2023/10/04 06:54:54;;;;;;;3.77;1.90;;;;;;;;;;5029936;28;20584;-69
2023/10/04 06:57:20;;;;;;;4.97;2.43;;;;;;;;;;5032013;28;20432;-67
2023/10/04 06:59:46;;;;;;;3.87;2.30;;;;;;;;;;5030680;28;20462;-67
2023/10/04 07:02:12;;;;;;;2.80;2.17;;;;;;;;;;5027972;28;20427;-70
2023/10/04 07:04:38;;;;;;;4.17;2.40;;;;;;;;;;5031695;28;20446;-70
2023/10/04 07:07:04;;;;;;;6.13;3.00;;;;;;;;;;5030171;28;20433;-71
2023/10/04 07:09:30;;;;;;;4.17;1.80;;;;;;;;;;5030609;28;20453;-68
2023/10/04 07:11:56;;;;;;;4.47;2.17;;;;;;;;;;5030209;28;20469;-67
2023/10/04 07:14:21;;;;;;;3.03;1.90;;;;;;;;;;5029809;28;20454;-67
2023/10/04 07:16:48;;;;;;;3.90;2.47;;;;;;;;;;5031246;28;20509;-67
2023/10/04 07:19:16;;;;;;;6.40;2.30;;;;;;;;;;5029801;28;20422;-68
2023/10/04 07:21:42;;;;;;;5.27;2.53;;;;;;;;;;5029890;28;20670;-67
2023/10/04 07:24:08;;;;;;;4.80;1.80;;;;;;;;;;5030510;28;21129;-67
2023/10/04 07:26:35;;;;;;;3.40;1.80;;;;;;;;;;5028430;28;20934;-67
2023/10/04 07:29:02;;;;;;;9.30;2.60;;;;;;;;;;5029831;28;20480;-68
2023/10/04 07:31:28;;;;;;;8.23;2.77;;;;;;;;;;5029342;28;20549;-67
2023/10/04 07:33:54;;;;;;;3.50;2.30;;;;;;;;;;5031074;28;20525;-67
2023/10/04 07:36:20;;;;;;;4.07;2.67;;;;;;;;;;5030833;28;20453;-68
2023/10/04 07:38:46;;;;;;;6.40;5.37;;;;;;;;;;5027811;28;20430;-68
2023/10/04 07:41:12;;;;;;;3.70;2.43;;;;;;;;;;5029269;28;20484;-68
2023/10/04 07:43:39;;;;;;;3.53;2.07;;;;;;;;;;5027714;28;20504;-67
2023/10/04 07:46:05;;;;;;;5.60;2.77;;;;;;;;;;5027423;28;20434;-68
2023/10/04 07:48:31;;;;;;;5.53;2.67;;;;;;;;;;5030250;28;20437;-68
2023/10/04 07:50:57;;;;;;;4.53;2.17;;;;;;;;;;5029030;28;20471;-67
2023/10/04 07:53:23;;;;;;;5.50;2.37;;;;;;;;;;5028750;28;20639;-68
2023/10/04 07:55:49;;;;;;;3.93;2.20;;;;;;;;;;5013105;28;20501;-68
2023/10/04 07:58:15;;;;;;;4.70;2.47;;;;;;;;;;5008893;28;20424;-68
2023/10/04 08:00:41;;;;;;;4.63;2.33;;;;;;;;;;5008589;28;20431;-68
2023/10/04 08:03:10;;;;;;;4.87;2.70;;;;;;;;;;5011840;28;20424;-68
2023/10/04 08:05:39;;;;;;;5.70;3.73;;;;;;;;;;5013272;28;20476;-72
2023/10/04 08:08:05;;;;;;;4.00;2.07;;;;;;;;;;5013325;28;20418;-68
2023/10/04 08:10:39;;;;;;;3.93;2.60;;;;;;;;;;5012969;28;20546;-67
2023/10/04 08:13:06;;;;;;;5.13;2.90;;;;;;;;;;5012852;28;20501;-67
2023/10/04 08:15:32;;;;;;;6.63;2.50;;;;;;;;;;5071656;22;20875;-68
2023/10/04 08:17:59;;;;;;;5.27;2.53;;;;;;;;;;5036839;28;20419;-69
2023/10/04 08:20:29;;;;;;;5.73;3.00;;;;;;;;;;5035143;28;20460;-70
2023/10/04 08:22:58;;;;;;;4.10;2.87;;;;;;;;;;5035597;28;20924;-67
2023/10/04 08:25:27;;;;;;;3.23;2.33;;;;;;;;;;5052827;28;20428;-69
2023/10/04 08:27:53;;;;;;;4.20;2.23;;;;;;;;;;5036445;28;20777;-68
2023/10/04 08:30:20;;;;;;;3.67;2.23;;;;;;;;;;5052950;28;20461;-68
2023/10/04 08:32:48;;;;;;;4.23;2.40;;;;;;;;;;5053384;28;20449;-68
2023/10/04 08:35:21;;;;;;;4.40;2.10;;;;;;;;;;5037343;28;20440;-69
2023/10/04 08:37:53;;;;;;;6.37;3.47;;;;;;;;;;5035736;28;20425;-68
2023/10/04 08:40:19;;;;;;;4.67;2.80;;;;;;;;;;5036744;28;20512;-68
2023/10/04 08:42:45;;;;;;;10.43;2.90;;;;;;;;;;5037600;28;20487;-68
2023/10/04 08:45:11;;;;;;;4.67;2.57;;;;;;;;;;5053123;28;20443;-68
2023/10/04 08:47:39;;;;;;;5.07;2.20;;;;;;;;;;5034849;28;20451;-68
2023/10/04 08:50:09;;;;;;;2.87;1.60;;;;;;;;;;5034891;28;20457;-68
2023/10/04 08:52:36;;;;;;;5.10;2.40;;;;;;;;;;5035004;28;20793;-68
2023/10/04 08:55:06;;;;;;;4.90;2.80;;;;;;;;;;5053811;28;20859;-68
2023/10/04 08:57:40;;;;;;;7.53;2.27;;;;;;;;;;5052581;28;20413;-68
2023/10/04 09:00:13;;;;;;;7.53;3.70;;;;;;;;;;5053554;28;20770;-67
2023/10/04 09:02:47;;;;;;;4.57;2.30;;;;;;;;;;5057260;28;20939;-69
2023/10/04 09:05:15;;;;;;;3.43;1.63;;;;;;;;;;5034248;28;20452;-69
2023/10/04 09:07:41;;;;;;;4.20;1.70;;;;;;;;;;5055834;28;20417;-68
2023/10/04 09:10:08;;;;;;;5.63;2.63;;;;;;;;;;5034222;28;20459;-68
2023/10/04 09:12:34;;;;;;;5.63;2.33;;;;;;;;;;5034587;28;20515;-69
2023/10/04 09:15:00;;;;;;;7.90;2.37;;;;;;;;;;5034124;28;20488;-69
2023/10/04 09:17:26;;;;;;;7.33;2.33;;;;;;;;;;5052975;28;20413;-69
2023/10/04 09:19:52;;;;;;;6.60;2.03;;;;;;;;;;5034413;28;20811;-68
2023/10/04 09:22:29;;;;;;;3.30;1.67;;;;;;;;;;5052365;28;20409;-69
2023/10/04 09:24:55;;;;;;;4.90;1.67;;;;;;;;;;5052930;28;20431;-69
2023/10/04 09:27:21;;;;;;;7.10;1.80;;;;;;;;;;5036477;28;20900;-68
2023/10/04 09:29:54;;;;;;;4.20;2.10;;;;;;;;;;5051722;28;20409;-68
2023/10/04 09:32:40;;;;;;;3.90;2.13;;;;;;;;;;5052011;28;20410;-68
2023/10/04 09:35:06;;;;;;;3.80;2.13;;;;;;;;;;5051851;28;20843;-69
2023/10/04 09:37:32;;;;;;;2.60;1.60;;;;;;;;;;5035861;28;20445;-69
2023/10/04 09:40:08;;;;;;;3.03;1.70;;;;;;;;;;5051758;28;20410;-67
2023/10/04 09:42:53;;;;;;;3.43;1.80;;;;;;;;;;5043860;28;20412;-68
2023/10/04 09:45:26;;;;;;;5.17;1.77;;;;;;;;;;5045717;28;20843;-69
2023/10/04 09:47:53;;;;;;;3.57;2.10;;;;;;;;;;5029915;28;20835;-68
2023/10/04 09:50:26;;;;;;;5.77;1.90;;;;;;;;;;5048568;28;20511;-68
2023/10/04 09:52:52;;;;;;;3.63;1.83;;;;;;;;;;5051965;28;20508;-68
2023/10/04 09:55:22;;;;;;;4.10;2.37;;;;;;;;;;5036520;28;20515;-70
2023/10/04 09:57:48;;;;;;;4.90;2.13;;;;;;;;;;5035983;28;20421;-68
2023/10/04 10:00:18;;;;;;;3.70;2.07;;;;;;;;;;5051929;28;20409;-68
2023/10/04 10:02:47;;;;;;;2.60;2.00;;;;;;;;;;5034175;28;20871;-67
2023/10/04 10:05:19;;;;;;;4.10;2.50;;;;;;;;;;5052214;28;20437;-70
2023/10/04 10:07:46;;;;;;;3.60;2.17;;;;;;;;;;5036725;28;20421;-70
2023/10/04 10:10:16;;;;;;;4.50;2.50;;;;;;;;;;5033844;28;20506;-68
2023/10/04 10:12:43;;;;;;;4.30;2.63;;;;;;;;;;5034034;28;20417;-69
2023/10/04 10:15:11;;;;;;;3.60;2.30;;;;;;;;;;5035009;28;20536;-72
2023/10/04 10:17:42;;;;;;;3.10;2.03;;;;;;;;;;5051632;28;20448;-71
2023/10/04 10:20:12;;;;;;;4.53;1.90;;;;;;;;;;5052685;28;20409;-69
2023/10/04 10:23:00;;;;;;;6.10;2.70;;;;;;;;;;5052211;28;20413;-69
2023/10/04 10:25:33;;;;;;;3.03;2.17;;;;;;;;;;5032428;28;20438;-69
2023/10/04 10:28:01;;;;;;;4.37;2.80;;;;;;;;;;5045971;28;20440;-68
2023/10/04 10:30:28;;;;;;;3.97;2.43;;;;;;;;;;5052047;28;20460;-67
2023/10/04 10:32:57;;;;;;;3.67;2.50;;;;;;;;;;5052902;28;20790;-68
2023/10/04 10:35:39;;;;;;;4.60;2.57;;;;;;;;;;5033867;28;20442;-68
2023/10/04 10:38:24;;;;;;;3.07;1.90;;;;;;;;;;5036974;28;20425;-70
2023/10/04 10:40:50;;;;;;;3.70;2.73;;;;;;;;;;5056661;28;20558;-71
2023/10/04 10:43:15;;;;;;;4.30;2.13;;;;;;;;;;5055983;28;20444;-71
2023/10/04 10:45:41;;;;;;;5.20;2.80;;;;;;;;;;5055555;28;20432;-67
2023/10/04 10:48:10;;;;;;;3.93;2.30;;;;;;;;;;5056725;28;20727;-69
2023/10/04 10:50:37;;;;;;;6.40;2.50;;;;;;;;;;5055148;28;20494;-68
2023/10/04 10:53:10;;;;;;;5.33;3.00;;;;;;;;;;5037953;28;20958;-68
2023/10/04 10:55:39;;;;;;;4.37;2.20;;;;;;;;;;5055686;28;20433;-67
2023/10/04 10:58:07;;;;;;;4.27;2.70;;;;;;;;;;5055093;28;20882;-68
2023/10/04 11:00:33;;;;;;;5.20;3.00;;;;;;;;;;5056583;28;20467;-69
2023/10/04 11:03:00;;;;;;;9.57;2.57;;;;;;;;;;5037567;28;20479;-69
2023/10/04 11:05:26;;;;;;;2.97;2.67;;;;;;;;;;5055855;28;20444;-69
2023/10/04 11:07:55;;;;;;;3.07;1.70;;;;;;;;;;5056093;28;20916;-72
2023/10/04 11:10:23;;;;;;;3.50;2.33;;;;;;;;;;5054932;28;20445;-70
2023/10/04 11:13:03;;;;;;;2.90;2.43;;;;;;;;;;5056465;28;20409;-71
2023/10/04 11:15:29;;;;;;;4.07;2.40;;;;;;;;;;5054717;28;20478;-71
2023/10/04 11:17:55;;;;;;;4.97;3.03;;;;;;;;;;5055220;28;20413;-71
2023/10/04 11:20:21;;;;;;;4.80;3.40;;;;;;;;;;5055035;28;20442;-71
2023/10/04 11:22:51;;;;;;;3.17;2.30;;;;;;;;;;5055269;28;20870;-71
2023/10/04 11:25:18;;;;;;;7.07;3.30;;;;;;;;;;5037624;28;20855;-71
2023/10/04 11:27:46;;;;;;;4.90;3.00;;;;;;;;;;5058072;28;20420;-72
2023/10/04 11:30:13;;;;;;;5.10;2.77;;;;;;;;;;5058227;28;20536;-71
2023/10/04 11:32:45;;;;;;;4.90;3.13;;;;;;;;;;5056753;28;20425;-71
2023/10/04 11:35:12;;;;;;;5.40;3.37;;;;;;;;;;5055592;28;20919;-71
2023/10/04 11:37:44;;;;;;;5.23;3.07;;;;;;;;;;5055288;28;20499;-72
2023/10/04 11:40:12;;;;;;;4.00;3.37;;;;;;;;;;5054824;28;20436;-71
2023/10/04 11:42:38;;;;;;;3.30;3.00;;;;;;;;;;5054131;28;20414;-72
2023/10/04 11:45:21;;;;;;;3.60;2.47;;;;;;;;;;5035818;28;20524;-71
2023/10/04 11:48:00;;;;;;;3.67;2.80;;;;;;;;;;5035525;28;20421;-71
2023/10/04 11:50:40;;;;;;;5.60;3.27;;;;;;;;;;5054069;28;20515;-70
2023/10/04 11:53:06;;;;;;;5.73;3.20;;;;;;;;;;5053864;28;20413;-70
2023/10/04 11:55:36;;;;;;;10.67;3.10;;;;;;;;;;5035758;28;20976;-71
2023/10/04 11:58:06;;;;;;;4.00;3.23;;;;;;;;;;5035619;28;20440;-71
2023/10/04 12:00:32;;;;;;;4.60;2.70;;;;;;;;;;5035477;28;20779;-70
2023/10/04 12:02:59;;;;;;;7.13;3.20;;;;;;;;;;5053390;28;20421;-70
2023/10/04 12:05:25;;;;;;;3.23;2.90;;;;;;;;;;5035224;28;20441;-71
2023/10/04 12:07:51;;;;;;;3.43;3.13;;;;;;;;;;5053049;28;20561;-70
2023/10/04 12:10:18;;;;;;;3.30;3.00;;;;;;;;;;5052924;28;20457;-71
2023/10/04 12:12:44;;;;;;;3.07;2.77;;;;;;;;;;5052985;28;20406;-71
2023/10/04 12:15:10;;;;;;;3.20;2.63;;;;;;;;;;5052731;28;20459;-71
2023/10/04 12:17:38;;;;;;;2.93;2.63;;;;;;;;;;5034847;28;20800;-71
2023/10/04 12:20:06;;;;;;;3.50;3.20;;;;;;;;;;5052639;28;20429;-71
2023/10/04 12:22:32;;;;;;;3.37;3.07;;;;;;;;;;5054104;28;20948;-70
2023/10/04 12:24:59;;;;;;;3.27;2.90;;;;;;;;;;5052577;28;20516;-70
2023/10/04 12:27:25;;;;;;;3.50;3.03;;;;;;;;;;5052656;28;20417;-71
2023/10/04 12:29:51;;;;;;;4.93;3.40;;;;;;;;;;5034758;28;20456;-70
2023/10/04 12:32:19;;;;;;;4.17;3.40;;;;;;;;;;5052423;28;20545;-70
2023/10/04 12:34:45;;;;;;;3.57;3.10;;;;;;;;;;5052285;28;20433;-70
2023/10/04 12:37:12;;;;;;;3.00;2.70;;;;;;;;;;5052363;28;20428;-73
2023/10/04 12:39:38;;;;;;;5.37;3.33;;;;;;;;;;5034388;28;20826;-71
2023/10/04 12:42:05;;;;;;;3.50;3.20;;;;;;;;;;5052342;28;20479;-70
2023/10/04 12:44:31;;;;;;;3.93;2.53;;;;;;;;;;5034213;28;20806;-69
2023/10/04 12:46:57;;;;;;;4.67;2.77;;;;;;;;;;5034256;28;20449;-70
2023/10/04 12:49:23;;;;;;;3.20;2.90;;;;;;;;;;5034064;28;20575;-70
2023/10/04 12:51:49;;;;;;;3.60;3.30;;;;;;;;;;5034346;28;20467;-70
2023/10/04 12:54:16;;;;;;;4.30;3.20;;;;;;;;;;5051964;28;20440;-70
2023/10/04 12:56:46;;;;;;;3.70;3.40;;;;;;;;;;5034103;28;20975;-70
2023/10/04 12:59:12;;;;;;;2.80;2.60;;;;;;;;;;5033867;28;20455;-71
2023/10/04 13:01:41;;;;;;;3.37;3.07;;;;;;;;;;5051865;28;20985;-71
2023/10/04 13:04:07;;;;;;;5.20;3.03;;;;;;;;;;5052036;28;20440;-71
2023/10/04 13:06:38;;;;;;;3.60;2.87;;;;;;;;;;5051872;28;20405;-70
2023/10/04 13:09:04;;;;;;;12.33;4.23;;;;;;;;;;5051986;28;20420;-70
2023/10/04 13:11:30;;;;;;;3.00;2.70;;;;;;;;;;5034103;28;20460;-70
2023/10/04 13:13:56;;;;;;;5.17;3.30;;;;;;;;;;5051710;28;20813;-70
2023/10/04 13:16:22;;;;;;;3.37;2.67;;;;;;;;;;5034213;28;20398;-69
2023/10/04 13:18:49;;;;;;;2.60;2.40;;;;;;;;;;5034422;28;20501;-70
2023/10/04 13:21:15;;;;;;;5.50;3.40;;;;;;;;;;5049176;28;20421;-71
2023/10/04 13:23:41;;;;;;;3.00;2.80;;;;;;;;;;5046745;28;20437;-74
2023/10/04 13:26:16;;;;;;;4.37;3.00;;;;;;;;;;5047361;28;20503;-71
2023/10/04 13:28:43;;;;;;;4.43;2.80;;;;;;;;;;5033623;28;20444;-71
2023/10/04 13:31:15;;;;;;;7.03;3.03;;;;;;;;;;5047960;28;20531;-72
2023/10/04 13:33:41;;;;;;;3.10;2.90;;;;;;;;;;5023939;28;20432;-70
2023/10/04 13:36:08;;;;;;;6.90;3.73;;;;;;;;;;5048875;28;20428;-72
2023/10/04 13:38:34;;;;;;;3.63;2.60;;;;;;;;;;5050968;28;20452;-73
2023/10/04 13:41:00;;;;;;;5.27;2.97;;;;;;;;;;5049800;28;20514;-71
2023/10/04 13:43:27;;;;;;;7.90;3.07;;;;;;;;;;5048123;28;20436;-71
2023/10/04 13:45:53;;;;;;;4.50;3.27;;;;;;;;;;5030721;28;20432;-73
2023/10/04 13:48:22;;;;;;;3.20;2.90;;;;;;;;;;5048442;28;20713;-71
2023/10/04 13:50:49;;;;;;;5.03;3.10;;;;;;;;;;5048038;28;20547;-72
2023/10/04 13:53:18;;;;;;;2.50;2.30;;;;;;;;;;5030248;28;20425;-73
2023/10/04 13:55:44;;;;;;;4.77;3.03;;;;;;;;;;5030275;28;20441;-73
2023/10/04 13:58:12;;;;;;;3.63;3.33;;;;;;;;;;5048314;28;20438;-71
2023/10/04 14:00:44;;;;;;;2.73;2.30;;;;;;;;;;5047690;28;20425;-70
2023/10/04 14:03:10;;;;;;;3.43;2.83;;;;;;;;;;5047591;28;20421;-75
2023/10/04 14:05:36;;;;;;;3.03;2.77;;;;;;;;;;5029846;28;20459;-72
2023/10/04 14:08:03;;;;;;;10.00;2.97;;;;;;;;;;5029582;28;20516;-70
2023/10/04 14:10:30;;;;;;;3.20;2.67;;;;;;;;;;5047530;28;20460;-75
2023/10/04 14:12:57;;;;;;;5.77;2.87;;;;;;;;;;5050540;28;20409;-74
2023/10/04 14:15:25;;;;;;;5.67;2.90;;;;;;;;;;5085691;23;20483;-69
2023/10/04 14:17:51;;;;;;;3.40;2.63;;;;;;;;;;5070890;28;20961;-67
2023/10/04 14:20:17;;;;;;;3.30;2.80;;;;;;;;;;5071458;28;20420;-67
2023/10/04 14:22:46;;;;;;;3.30;2.87;;;;;;;;;;5070344;28;20485;-67
2023/10/04 14:25:12;;;;;;;3.80;2.83;;;;;;;;;;5070461;28;20493;-67
2023/10/04 14:27:40;;;;;;;3.77;2.80;;;;;;;;;;5071391;28;20431;-67
2023/10/04 14:30:11;;;;;;;2.83;2.57;;;;;;;;;;5071054;28;20431;-67
2023/10/04 14:32:37;;;;;;;4.37;3.40;;;;;;;;;;5070651;28;20428;-67
2023/10/04 14:35:03;;;;;;;3.83;3.30;;;;;;;;;;5070290;28;20442;-66
2023/10/04 14:37:30;;;;;;;3.97;3.67;;;;;;;;;;5069969;28;20432;-69
2023/10/04 14:39:58;;;;;;;2.60;2.40;;;;;;;;;;5070500;28;20942;-69
2023/10/04 14:42:24;;;;;;;3.40;2.90;;;;;;;;;;5070362;28;20884;-69
2023/10/04 14:44:51;;;;;;;2.73;2.53;;;;;;;;;;5069556;28;20440;-67